Time;durP1;ratioP1;P1;durP2;ratioP2;P2;SDS_P1;SDS_P2;PMS_P1;PMS_P2;Temp;Humidity;BMP_temperature;BMP_pressure;BME280_temperature;BME280_humidity;BME280_pressure;Samples;Min_cycle;Max_cycle;Signal;HPM_P1;HPM_P2
2023/07/22 00:01:12;;;;;;;3.03;2.20;;;16.40;99.90;;;;;;5035956;28;20057;-74
2023/07/22 00:03:38;;;;;;;3.80;2.30;;;16.40;99.90;;;;;;5035120;28;20037;-73
2023/07/22 00:06:09;;;;;;;3.92;2.03;;;16.50;99.90;;;;;;5038272;28;20044;-74
2023/07/22 00:08:37;;;;;;;5.82;2.20;;;16.50;99.90;;;;;;5038772;28;20049;-74
2023/07/22 00:11:06;;;;;;;3.17;2.55;;;16.50;99.90;;;;;;5036488;28;20033;-73
2023/07/22 00:13:33;;;;;;;2.72;2.00;;;16.50;99.90;;;;;;5038204;28;20040;-73
2023/07/22 00:16:00;;;;;;;3.92;1.90;;;16.50;99.90;;;;;;5030844;28;20037;-73
2023/07/22 00:18:27;;;;;;;4.30;2.90;;;16.50;1.00;;;;;;5034871;28;20399;-73
2023/07/22 00:20:55;;;;;;;3.33;2.35;;;16.70;99.90;;;;;;5032036;28;20026;-73
2023/07/22 00:23:21;;;;;;;3.10;2.33;;;16.70;99.90;;;;;;5036285;28;20040;-73
2023/07/22 00:25:47;;;;;;;2.92;2.08;;;16.60;99.90;;;;;;5035502;28;20052;-73
2023/07/22 00:28:13;;;;;;;4.90;2.60;;;16.50;99.90;;;;;;5033247;28;20033;-74
2023/07/22 00:30:40;;;;;;;3.03;2.20;;;16.50;99.90;;;;;;5036538;28;20044;-73
2023/07/22 00:33:06;;;;;;;4.88;1.92;;;16.50;99.90;;;;;;5032978;28;20427;-73
2023/07/22 00:35:32;;;;;;;3.85;2.25;;;16.50;99.90;;;;;;5039918;28;20403;-73
2023/07/22 00:38:00;;;;;;;3.05;2.05;;;16.40;1.00;;;;;;5032544;28;20046;-73
2023/07/22 00:40:26;;;;;;;3.20;2.13;;;16.30;1.00;;;;;;5039139;28;20033;-73
2023/07/22 00:42:52;;;;;;;3.78;2.22;;;16.30;1.00;;;;;;5032808;28;20040;-75
2023/07/22 00:45:18;;;;;;;4.25;2.45;;;16.20;1.00;;;;;;5036884;28;20042;-72
2023/07/22 00:47:46;;;;;;;3.75;2.47;;;16.20;1.00;;;;;;5036049;28;20059;-76
2023/07/22 00:50:12;;;;;;;1.90;1.70;;;16.30;1.00;;;;;;5046158;28;20045;-74
2023/07/22 00:52:38;;;;;;;3.55;2.10;;;16.30;1.00;;;;;;5035135;28;20042;-74
2023/07/22 00:55:05;;;;;;;4.90;2.03;;;16.30;1.00;;;;;;5036999;28;20221;-73
2023/07/22 00:57:31;;;;;;;3.53;1.83;;;16.10;1.00;;;;;;5034340;28;20368;-74
2023/07/22 00:59:57;;;;;;;2.72;1.92;;;16.00;1.00;;;;;;5030601;28;20041;-75
2023/07/22 01:02:24;;;;;;;4.57;2.20;;;15.90;1.00;;;;;;5050859;28;20052;-74
2023/07/22 01:04:51;;;;;;;3.55;2.05;;;15.80;1.00;;;;;;5035385;28;20033;-74
2023/07/22 01:07:18;;;;;;;4.05;2.40;;;15.70;1.00;;;;;;5026093;28;20746;-77
2023/07/22 01:09:44;;;;;;;4.03;2.40;;;15.60;1.00;;;;;;5049460;28;20048;-76
2023/07/22 01:12:11;;;;;;;2.58;2.13;;;15.60;1.00;;;;;;5036316;28;20037;-73
2023/07/22 01:14:40;;;;;;;3.28;2.65;;;15.50;1.00;;;;;;5050505;28;20044;-73
2023/07/22 01:17:09;;;;;;;5.15;2.55;;;15.50;1.00;;;;;;5029674;28;20088;-73
2023/07/22 01:19:35;;;;;;;3.72;2.78;;;15.40;1.00;;;;;;5052104;28;20057;-73
2023/07/22 01:22:04;;;;;;;3.58;2.72;;;15.30;1.00;;;;;;5034819;28;20080;-73
2023/07/22 01:24:31;;;;;;;3.90;2.63;;;15.30;1.00;;;;;;5032002;28;20033;-74
2023/07/22 01:26:58;;;;;;;4.43;2.40;;;15.30;1.00;;;;;;5044497;28;20049;-73
2023/07/22 01:29:24;;;;;;;4.05;3.00;;;15.40;1.00;;;;;;5033521;28;20478;-73
2023/07/22 01:31:52;;;;;;;4.00;2.85;;;15.40;1.00;;;;;;5033001;28;20045;-74
2023/07/22 01:34:19;;;;;;;3.22;2.38;;;15.50;1.00;;;;;;5035691;28;20049;-74
2023/07/22 01:36:50;;;;;;;3.03;2.72;;;15.50;1.00;;;;;;5033945;28;20040;-76
2023/07/22 01:39:16;;;;;;;;;;;15.60;1.00;;;;;;5032201;28;20040;-74
2023/07/22 01:41:43;;;;;;;5.45;2.55;;;15.50;1.00;;;;;;5037606;28;19920;-74
2023/07/22 01:44:10;;;;;;;4.18;3.05;;;15.50;1.00;;;;;;5024213;28;20036;-74
2023/07/22 01:46:37;;;;;;;3.40;2.80;;;15.50;1.00;;;;;;5033117;28;20042;-74
2023/07/22 01:49:10;;;;;;;3.00;2.70;;;15.50;1.00;;;;;;5050389;28;20052;-75
2023/07/22 01:51:37;;;;;;;3.38;2.80;;;15.50;1.00;;;;;;5034973;28;20026;-74
2023/07/22 01:54:05;;;;;;;3.53;3.05;;;15.40;1.00;;;;;;5030420;28;20414;-73
2023/07/22 01:56:31;;;;;;;4.63;2.97;;;15.40;1.00;;;;;;5032945;28;20025;-74
2023/07/22 01:58:57;;;;;;;5.10;2.75;;;15.30;1.00;;;;;;5048105;28;20045;-75
2023/07/22 02:01:24;;;;;;;3.15;2.70;;;15.30;1.00;;;;;;5041797;28;20041;-74
2023/07/22 02:03:50;;;;;;;4.18;2.55;;;15.30;1.00;;;;;;5030562;28;20037;-74
2023/07/22 02:06:16;;;;;;;4.63;3.05;;;15.30;1.00;;;;;;5030811;28;20033;-75
2023/07/22 02:08:42;;;;;;;2.50;2.30;;;15.30;1.00;;;;;;5047880;28;20057;-74
2023/07/22 02:11:08;;;;;;;4.50;2.92;;;15.40;1.00;;;;;;5035804;28;20032;-75
2023/07/22 02:13:35;;;;;;;4.47;2.95;;;15.40;1.00;;;;;;5051124;28;20049;-73
2023/07/22 02:16:02;;;;;;;4.03;2.92;;;15.50;1.00;;;;;;5034465;28;20517;-74
2023/07/22 02:18:28;;;;;;;4.07;2.42;;;15.60;1.00;;;;;;5034093;28;20049;-74
2023/07/22 02:20:55;;;;;;;4.22;2.65;;;15.70;1.00;;;;;;5048206;28;20057;-74
2023/07/22 02:23:22;;;;;;;3.92;2.70;;;15.90;1.00;;;;;;5029581;28;20036;-74
2023/07/22 02:25:53;;;;;;;4.40;3.35;;;16.00;1.00;;;;;;5031567;28;20042;-76
2023/07/22 02:28:24;;;;;;;3.80;3.05;;;16.10;1.00;;;;;;5034007;28;20497;-74
2023/07/22 02:30:53;;;;;;;7.03;3.35;;;16.10;1.00;;;;;;5030080;28;20390;-76
2023/07/22 02:33:21;;;;;;;5.05;3.20;;;16.20;1.00;;;;;;5028899;28;20057;-73
2023/07/22 02:35:48;;;;;;;4.45;3.58;;;16.20;1.00;;;;;;5029801;28;20045;-76
2023/07/22 02:38:14;;;;;;;4.90;3.80;;;16.20;1.00;;;;;;5035242;28;20041;-74
2023/07/22 02:40:40;;;;;;;4.72;3.65;;;16.10;6.60;;;;;;5032961;28;20530;-74
2023/07/22 02:43:07;;;;;;;4.50;3.95;;;15.90;70.30;;;;;;5027907;28;20037;-73
2023/07/22 02:45:34;;;;;;;7.55;4.35;;;15.70;99.90;;;;;;5031577;28;20037;-73
2023/07/22 02:48:00;;;;;;;5.32;4.50;;;15.50;99.90;;;;;;5051045;28;20044;-73
2023/07/22 02:50:26;;;;;;;6.03;5.25;;;15.50;99.90;;;;;;5031224;28;20044;-75
2023/07/22 02:52:52;;;;;;;7.95;6.05;;;15.40;99.90;;;;;;5032045;28;20053;-74
2023/07/22 02:55:19;;;;;;;7.10;5.50;;;15.40;99.90;;;;;;5032670;28;20401;-73
2023/07/22 02:57:46;;;;;;;5.30;4.47;;;15.40;99.90;;;;;;5047213;28;20056;-73
2023/07/22 03:00:17;;;;;;;7.45;5.65;;;15.40;99.90;;;;;;5032316;28;20406;-74
2023/07/22 03:02:43;;;;;;;6.78;6.05;;;15.40;99.90;;;;;;5030873;28;20045;-74
2023/07/22 03:05:09;;;;;;;6.10;5.38;;;15.40;99.90;;;;;;5037325;28;20040;-74
2023/07/22 03:07:37;;;;;;;7.07;6.00;;;15.30;99.90;;;;;;5033052;28;20056;-73
2023/07/22 03:10:04;;;;;;;8.13;6.95;;;15.30;99.90;;;;;;5032142;28;20049;-74
2023/07/22 03:12:32;;;;;;;8.93;7.28;;;15.30;99.90;;;;;;5029580;28;20046;-73
2023/07/22 03:14:58;;;;;;;8.95;6.80;;;15.40;99.90;;;;;;5032280;28;20030;-74
2023/07/22 03:17:24;;;;;;;8.95;7.03;;;15.40;99.90;;;;;;5030465;28;20041;-74
2023/07/22 03:19:50;;;;;;;10.38;7.60;;;15.50;99.90;;;;;;5034198;28;20045;-75
2023/07/22 03:22:17;;;;;;;8.27;7.07;;;15.60;99.90;;;;;;5032894;28;20045;-74
2023/07/22 03:24:45;;;;;;;9.15;7.60;;;15.60;99.90;;;;;;5027868;28;20399;-73
2023/07/22 03:27:12;;;;;;;8.10;7.30;;;15.70;99.90;;;;;;5033129;28;20386;-74
2023/07/22 03:29:38;;;;;;;8.05;6.95;;;15.70;99.90;;;;;;5035149;28;20049;-74
2023/07/22 03:32:05;;;;;;;9.05;6.68;;;15.70;99.90;;;;;;5029563;28;20025;-73
2023/07/22 03:34:31;;;;;;;9.27;7.20;;;15.80;99.90;;;;;;5030831;28;20504;-73
2023/07/22 03:36:58;;;;;;;8.30;7.03;;;15.70;99.90;;;;;;5033451;28;20029;-74
2023/07/22 03:39:24;;;;;;;7.20;6.40;;;15.70;99.90;;;;;;5047867;28;20044;-73
2023/07/22 03:41:51;;;;;;;7.95;6.60;;;15.70;99.90;;;;;;5030872;28;20029;-75
2023/07/22 03:44:17;;;;;;;7.25;6.55;;;15.60;99.90;;;;;;5031113;28;20025;-73
2023/07/22 03:46:43;;;;;;;8.27;6.30;;;15.60;99.90;;;;;;5031300;28;20034;-74
2023/07/22 03:49:09;;;;;;;7.32;6.20;;;15.60;99.90;;;;;;5032512;28;20045;-73
2023/07/22 03:51:35;;;;;;;7.57;6.68;;;15.60;99.90;;;;;;5036823;28;20034;-74
2023/07/22 03:54:02;;;;;;;10.45;6.80;;;15.60;99.90;;;;;;5030731;28;20029;-74
2023/07/22 03:56:28;;;;;;;9.27;6.97;;;15.60;99.90;;;;;;5034778;28;20041;-73
2023/07/22 03:58:54;;;;;;;10.90;7.03;;;15.60;99.90;;;;;;5035492;28;20045;-77
2023/07/22 04:01:20;;;;;;;10.88;8.57;;;15.60;99.90;;;;;;5032998;28;20049;-74
2023/07/22 04:03:46;;;;;;;20.17;9.70;;;15.60;99.90;;;;;;5034176;28;20067;-74
2023/07/22 04:06:12;;;;;;;11.40;8.55;;;15.60;99.90;;;;;;5036844;28;20036;-74
2023/07/22 04:08:38;;;;;;;11.20;9.65;;;15.70;99.90;;;;;;5040420;28;20458;-74
2023/07/22 04:11:05;;;;;;;9.60;8.35;;;15.70;99.90;;;;;;5034601;28;20041;-74
2023/07/22 04:13:31;;;;;;;9.00;8.07;;;15.60;99.90;;;;;;5032937;28;20037;-74
2023/07/22 04:15:57;;;;;;;11.02;9.27;;;15.60;99.90;;;;;;5036358;28;20045;-74
2023/07/22 04:18:23;;;;;;;11.00;8.77;;;15.60;99.90;;;;;;5049615;28;20049;-74
2023/07/22 04:20:55;;;;;;;11.73;8.43;;;15.60;99.90;;;;;;5037179;28;20036;-74
2023/07/22 04:23:22;;;;;;;11.90;9.32;;;15.60;99.90;;;;;;5036660;28;20033;-73
2023/07/22 04:25:48;;;;;;;13.35;10.80;;;15.70;99.90;;;;;;5034302;28;20390;-73
2023/07/22 04:28:15;;;;;;;12.38;9.38;;;15.70;99.90;;;;;;5036717;28;20236;-74
2023/07/22 04:30:41;;;;;;;10.10;9.10;;;15.80;99.90;;;;;;5034127;28;20151;-73
2023/07/22 04:33:10;;;;;;;11.95;9.05;;;15.80;99.90;;;;;;5034700;28;20796;-73
2023/07/22 04:35:41;;;;;;;10.75;8.23;;;15.80;99.90;;;;;;5034356;28;20037;-74
2023/07/22 04:38:07;;;;;;;;;;;15.90;99.90;;;;;;5037124;28;20046;-74
2023/07/22 04:40:33;;;;;;;10.88;7.32;;;15.90;99.90;;;;;;5031510;28;19909;-72
2023/07/22 04:42:59;;;;;;;8.25;7.22;;;15.90;99.90;;;;;;5033617;28;20044;-74
2023/07/22 04:45:25;;;;;;;10.70;8.48;;;15.90;99.90;;;;;;5035197;28;20033;-75
2023/07/22 04:47:51;;;;;;;9.20;7.47;;;15.90;99.90;;;;;;5037490;28;20025;-76
2023/07/22 04:50:18;;;;;;;8.68;6.85;;;15.90;99.90;;;;;;5034341;28;20044;-75
2023/07/22 04:52:47;;;;;;;8.40;7.60;;;15.90;99.90;;;;;;5033980;28;20033;-73
2023/07/22 04:55:14;;;;;;;8.48;6.72;;;15.90;99.90;;;;;;5035231;28;20033;-73
2023/07/22 04:57:42;;;;;;;8.10;7.30;;;15.90;99.90;;;;;;5037326;28;20041;-73
2023/07/22 05:00:14;;;;;;;8.43;6.85;;;16.00;99.90;;;;;;5030672;28;20045;-74
2023/07/22 05:02:40;;;;;;;7.93;7.13;;;16.00;99.90;;;;;;5033088;28;20037;-76
2023/07/22 05:05:07;;;;;;;9.45;6.40;;;16.10;99.90;;;;;;5036279;28;20355;-77
2023/07/22 05:07:33;;;;;;;9.30;6.30;;;16.40;99.90;;;;;;5030601;28;20038;-74
2023/07/22 05:09:59;;;;;;;7.50;5.20;;;16.40;99.90;;;;;;5032455;28;20389;-74
2023/07/22 05:12:25;;;;;;;7.68;5.78;;;16.30;99.90;;;;;;5031816;28;20136;-79
2023/07/22 05:14:54;;;;;;;5.97;4.68;;;16.20;99.90;;;;;;5033491;28;20022;-77
2023/07/22 05:17:21;;;;;;;7.55;5.40;;;16.20;99.90;;;;;;5033689;28;20040;-75
2023/07/22 05:19:48;;;;;;;6.65;4.85;;;16.30;99.90;;;;;;5034538;28;20052;-76
2023/07/22 05:22:15;;;;;;;4.53;3.97;;;16.40;99.90;;;;;;5030003;28;20044;-75
2023/07/22 05:24:41;;;;;;;6.63;4.28;;;16.70;99.90;;;;;;5027593;28;20485;-75
2023/07/22 05:27:07;;;;;;;7.22;4.45;;;16.80;99.90;;;;;;5033086;28;20351;-75
2023/07/22 05:29:33;;;;;;;7.75;4.30;;;17.00;99.90;;;;;;5037556;28;20060;-74
2023/07/22 05:31:59;;;;;;;9.52;4.47;;;17.10;99.90;;;;;;5036869;28;20044;-75
2023/07/22 05:34:25;;;;;;;4.15;3.60;;;17.40;91.50;;;;;;5034313;28;20037;-75
2023/07/22 05:36:51;;;;;;;6.57;4.00;;;17.50;68.60;;;;;;5033064;28;20382;-75
2023/07/22 05:39:18;;;;;;;5.95;4.43;;;17.50;41.50;;;;;;5033466;28;20458;-75
2023/07/22 05:41:44;;;;;;;6.90;4.10;;;17.50;45.50;;;;;;5031853;28;20029;-75
2023/07/22 05:44:10;;;;;;;6.57;4.20;;;17.50;26.90;;;;;;5032207;28;20033;-75
2023/07/22 05:46:38;;;;;;;6.15;3.65;;;17.60;31.50;;;;;;5033442;28;20036;-76
2023/07/22 05:49:05;;;;;;;5.40;3.78;;;17.70;8.40;;;;;;5029993;28;20034;-76
2023/07/22 05:51:31;;;;;;;5.65;3.58;;;17.90;9.40;;;;;;5035173;28;20060;-77
2023/07/22 05:53:57;;;;;;;6.78;4.13;;;18.20;4.50;;;;;;5032436;28;20037;-77
2023/07/22 05:56:23;;;;;;;5.30;3.55;;;18.30;1.00;;;;;;5037004;28;20056;-75
2023/07/22 05:58:49;;;;;;;5.93;4.07;;;18.50;1.00;;;;;;5034000;28;20034;-76
2023/07/22 06:01:16;;;;;;;4.85;3.38;;;18.40;1.00;;;;;;5030480;28;20044;-74
2023/07/22 06:03:43;;;;;;;5.68;3.38;;;18.20;1.00;;;;;;5033287;28;20410;-77
2023/07/22 06:06:10;;;;;;;6.25;4.15;;;18.00;1.00;;;;;;5030931;28;20154;-77
2023/07/22 06:08:36;;;;;;;6.63;3.33;;;17.90;1.00;;;;;;5052103;28;20068;-75
2023/07/22 06:11:03;;;;;;;4.75;3.65;;;17.90;1.00;;;;;;5033262;28;20056;-75
2023/07/22 06:13:29;;;;;;;4.97;3.35;;;18.00;1.00;;;;;;5031709;28;20398;-75
2023/07/22 06:15:55;;;;;;;3.92;3.10;;;18.30;1.00;;;;;;5035519;28;20497;-79
2023/07/22 06:18:21;;;;;;;6.35;3.95;;;18.80;1.00;;;;;;5031750;28;20033;-76
2023/07/22 06:20:48;;;;;;;4.80;3.05;;;19.60;1.00;;;;;;5035087;28;20040;-75
2023/07/22 06:23:14;;;;;;;4.45;3.05;;;20.20;99.90;;;;;;5034741;28;20030;-74
2023/07/22 06:25:40;;;;;;;6.88;3.45;;;19.80;99.90;;;;;;5034093;28;20028;-75
2023/07/22 06:28:06;;;;;;;5.60;3.20;;;19.40;99.90;;;;;;5032539;28;20040;-75
2023/07/22 06:30:32;;;;;;;4.65;3.30;;;19.40;99.90;;;;;;5035498;28;20471;-76
2023/07/22 06:32:58;;;;;;;5.25;3.03;;;19.10;99.90;;;;;;5030965;28;20081;-78
2023/07/22 06:35:25;;;;;;;4.43;3.60;;;18.70;99.90;;;;;;5033031;28;20033;-77
2023/07/22 06:37:51;;;;;;;6.10;3.80;;;18.60;1.00;;;;;;5035671;28;20651;-76
2023/07/22 06:40:17;;;;;;;6.65;3.22;;;18.50;1.00;;;;;;5037424;28;20485;-75
2023/07/22 06:42:43;;;;;;;5.80;3.30;;;18.70;1.00;;;;;;5035260;28;20386;-77
2023/07/22 06:45:10;;;;;;;5.28;3.85;;;18.80;1.00;;;;;;5031440;28;20045;-74
2023/07/22 06:47:36;;;;;;;7.03;3.65;;;18.70;1.00;;;;;;5026314;28;20040;-76
2023/07/22 06:50:04;;;;;;;5.10;4.32;;;18.80;1.00;;;;;;5027400;28;20045;-77
2023/07/22 06:52:31;;;;;;;4.63;3.63;;;18.70;99.90;;;;;;5031751;28;20045;-76
2023/07/22 06:54:57;;;;;;;5.93;3.70;;;18.90;99.90;;;;;;5032107;28;20367;-77
2023/07/22 06:57:25;;;;;;;6.63;3.30;;;19.00;99.90;;;;;;5034060;28;20036;-75
2023/07/22 06:59:54;;;;;;;4.90;3.53;;;19.10;99.90;;;;;;5032318;28;20050;-76
2023/07/22 07:02:20;;;;;;;6.93;3.92;;;19.10;99.90;;;;;;5031295;28;20044;-77
2023/07/22 07:04:47;;;;;;;5.68;3.55;;;19.00;99.90;;;;;;5028519;28;20040;-79
2023/07/22 07:07:14;;;;;;;4.28;3.17;;;19.30;99.90;;;;;;5036196;28;20038;-77
2023/07/22 07:09:40;;;;;;;5.45;3.58;;;20.30;99.90;;;;;;5035772;28;20359;-77
2023/07/22 07:12:07;;;;;;;6.47;3.70;;;21.10;99.90;;;;;;5032652;28;20029;-77
2023/07/22 07:14:34;;;;;;;6.25;3.42;;;21.00;99.90;;;;;;5032914;28;20387;-76
2023/07/22 07:17:01;;;;;;;4.70;3.13;;;20.40;99.90;;;;;;5031959;28;20030;-76
2023/07/22 07:19:28;;;;;;;8.05;3.35;;;19.70;99.90;;;;;;5034646;28;20398;-76
2023/07/22 07:21:54;;;;;;;5.93;3.22;;;19.50;99.90;;;;;;5049580;28;20029;-76
2023/07/22 07:24:20;;;;;;;4.53;2.95;;;19.30;99.90;;;;;;5032187;28;20061;-76
2023/07/22 07:26:46;;;;;;;5.25;3.13;;;19.20;99.90;;;;;;5035873;28;20045;-76
2023/07/22 07:29:13;;;;;;;6.95;3.65;;;19.20;99.90;;;;;;5036153;28;20025;-74
2023/07/22 07:31:39;;;;;;;6.32;3.35;;;19.10;99.90;;;;;;5035709;28;20048;-76
2023/07/22 07:34:05;;;;;;;6.85;2.95;;;19.20;99.90;;;;;;5033814;28;20033;-76
2023/07/22 07:36:33;;;;;;;4.88;3.05;;;19.40;99.90;;;;;;5031166;28;20041;-75
2023/07/22 07:39:00;;;;;;;5.63;3.30;;;19.50;99.90;;;;;;5031139;28;20033;-75
2023/07/22 07:41:26;;;;;;;5.75;3.65;;;19.50;99.90;;;;;;5035513;28;20060;-77
2023/07/22 07:43:52;;;;;;;6.25;3.70;;;20.10;99.90;;;;;;5037257;28;20482;-77
2023/07/22 07:46:23;;;;;;;5.72;3.83;;;20.40;99.90;;;;;;5036379;28;20033;-75
2023/07/22 07:48:51;;;;;;;5.15;3.58;;;20.60;99.90;;;;;;5037875;28;20032;-77
2023/07/22 07:51:18;;;;;;;7.18;3.25;;;20.90;99.90;;;;;;5033015;28;20471;-75
2023/07/22 07:53:49;;;;;;;6.72;3.83;;;21.00;99.90;;;;;;5034622;28;20036;-76
2023/07/22 07:56:16;;;;;;;6.22;3.50;;;21.20;99.90;;;;;;5036075;28;20056;-75
2023/07/22 07:58:43;;;;;;;4.15;3.30;;;21.10;99.90;;;;;;5033747;28;20041;-76
2023/07/22 08:01:10;;;;;;;3.95;3.00;;;21.80;99.90;;;;;;5035986;28;20045;-76
2023/07/22 08:03:37;;;;;;;3.97;2.70;;;23.00;15.20;;;;;;5034014;28;20467;-76
2023/07/22 08:06:04;;;;;;;5.72;3.80;;;23.00;1.00;;;;;;5035111;28;20044;-76
2023/07/22 08:08:30;;;;;;;4.13;3.25;;;22.50;21.10;;;;;;5052142;28;20378;-75
2023/07/22 08:11:04;;;;;;;5.15;3.20;;;21.70;99.90;;;;;;5039095;28;20033;-76
2023/07/22 08:13:31;;;;;;;4.68;3.10;;;21.60;99.90;;;;;;5027568;28;20493;-75
2023/07/22 08:15:58;;;;;;;8.00;3.67;;;21.60;99.90;;;;;;5028099;28;20029;-76
2023/07/22 08:18:24;;;;;;;4.25;3.00;;;21.70;99.70;;;;;;5030136;28;20037;-77
2023/07/22 08:20:52;;;;;;;4.50;3.20;;;22.10;77.10;;;;;;5036119;28;20033;-76
2023/07/22 08:23:19;;;;;;;6.07;3.40;;;22.40;39.50;;;;;;5029646;28;20030;-77
2023/07/22 08:25:45;;;;;;;3.58;2.72;;;23.00;5.80;;;;;;5035663;28;20037;-78
2023/07/22 08:28:11;;;;;;;4.03;3.00;;;23.60;1.00;;;;;;5028344;28;20040;-75
2023/07/22 08:30:40;;;;;;;4.47;2.78;;;23.40;1.00;;;;;;5032436;28;20044;-76
2023/07/22 08:33:11;;;;;;;3.80;2.75;;;23.00;1.00;;;;;;5025554;28;20025;-76
2023/07/22 08:35:38;;;;;;;4.60;3.00;;;22.80;1.00;;;;;;5031767;28;20045;-76
2023/07/22 08:38:05;;;;;;;5.45;3.00;;;22.50;1.00;;;;;;5036322;28;20038;-77
2023/07/22 08:40:40;;;;;;;4.50;2.65;;;22.00;1.00;;;;;;5033359;28;20472;-77
2023/07/22 08:43:11;;;;;;;7.43;3.08;;;22.50;1.00;;;;;;5028755;28;20029;-77
2023/07/22 08:45:38;;;;;;;5.28;2.97;;;23.30;1.00;;;;;;5005000;28;20430;-78
2023/07/22 08:48:09;;;;;;;5.70;3.03;;;24.00;1.00;;;;;;5006608;28;20029;-79
2023/07/22 08:50:49;;;;;;;5.07;2.42;;;24.00;1.00;;;;;;5008606;28;20049;-77
2023/07/22 08:53:15;;;;;;;4.05;2.58;;;23.90;1.00;;;;;;5003484;28;20750;-76
2023/07/22 08:55:42;;;;;;;3.47;2.72;;;23.50;1.00;;;;;;5005760;28;20463;-75
2023/07/22 08:58:09;;;;;;;4.43;2.42;;;22.60;1.00;;;;;;5005564;28;20052;-76
2023/07/22 09:00:36;;;;;;;4.53;2.92;;;22.30;1.00;;;;;;5007954;28;20045;-76
2023/07/22 09:03:04;;;;;;;4.63;2.92;;;22.10;1.00;;;;;;5008023;28;20045;-76
2023/07/22 09:05:33;;;;;;;4.00;2.50;;;21.90;1.00;;;;;;5011425;28;20030;-78
2023/07/22 09:08:02;;;;;;;4.65;2.47;;;21.90;1.00;;;;;;5013501;28;20057;-76
2023/07/22 09:10:28;;;;;;;3.80;2.47;;;22.40;1.00;;;;;;5013978;28;20049;-77
2023/07/22 09:12:55;;;;;;;3.05;2.00;;;22.70;1.00;;;;;;5006265;28;20053;-76
2023/07/22 09:15:23;;;;;;;4.28;2.45;;;23.00;1.00;;;;;;5014831;28;20056;-76
2023/07/22 09:17:49;;;;;;;3.97;2.28;;;23.70;1.00;;;;;;5012815;28;20610;-76
2023/07/22 09:20:15;;;;;;;3.35;2.35;;;25.10;99.90;;;;;;5017316;28;20037;-75
2023/07/22 09:22:46;;;;;;;4.45;2.15;;;26.50;99.90;;;;;;5009507;28;20041;-76
2023/07/22 09:25:16;;;;;;;3.25;2.25;;;26.70;99.90;;;;;;5007223;28;20033;-76
2023/07/22 09:27:46;;;;;;;;;;;25.50;99.90;;;;;;5015242;28;20398;-77
2023/07/22 09:30:22;;;;;;;3.95;1.85;;;26.10;99.90;;;;;;5013246;28;20359;-77
2023/07/22 09:32:49;;;;;;;4.30;2.00;;;26.40;99.90;;;;;;5013404;28;20412;-75
2023/07/22 09:35:16;;;;;;;3.70;1.80;;;27.20;99.90;;;;;;5016544;28;20375;-77
2023/07/22 09:37:42;;;;;;;2.92;1.60;;;26.90;99.90;;;;;;5016775;28;20033;-78
2023/07/22 09:40:20;;;;;;;3.00;1.63;;;26.80;99.90;;;;;;5010466;28;20042;-77
2023/07/22 09:42:51;;;;;;;4.28;2.00;;;26.10;99.90;;;;;;5013101;28;20391;-77
2023/07/22 09:45:19;;;;;;;3.08;1.70;;;25.10;99.90;;;;;;5010852;28;20042;-80
2023/07/22 09:47:47;;;;;;;2.67;1.60;;;24.90;99.90;;;;;;5010787;28;20042;-80
2023/07/22 09:50:24;;;;;;;4.53;1.80;;;24.90;99.90;;;;;;5013421;28;20042;-80
2023/07/22 09:52:52;;;;;;;3.45;1.83;;;25.20;99.90;;;;;;5012049;28;20046;-78
2023/07/22 09:55:22;;;;;;;8.15;1.95;;;25.60;99.90;;;;;;5014114;28;20052;-77
2023/07/22 09:58:02;;;;;;;3.90;1.80;;;25.50;99.90;;;;;;5015462;28;20034;-79
2023/07/22 10:00:35;;;;;;;4.57;2.17;;;24.50;99.90;;;;;;5013995;28;20057;-77
2023/07/22 10:03:06;;;;;;;3.40;1.98;;;24.80;99.90;;;;;;5015763;28;20041;-76
2023/07/22 10:05:38;;;;;;;4.35;1.80;;;25.50;99.90;;;;;;5018157;28;20022;-75
2023/07/22 10:08:06;;;;;;;3.08;1.92;;;25.80;99.90;;;;;;5006479;28;20029;-77
2023/07/22 10:10:35;;;;;;;4.30;1.88;;;25.00;99.90;;;;;;5009576;28;20438;-78
2023/07/22 10:13:02;;;;;;;3.47;2.22;;;24.70;99.90;;;;;;5009280;28;20042;-76
2023/07/22 10:15:30;;;;;;;5.05;2.25;;;24.60;99.90;;;;;;5011707;28;20058;-78
2023/07/22 10:17:57;;;;;;;3.55;1.80;;;24.50;99.90;;;;;;5015172;28;20029;-78
2023/07/22 10:20:24;;;;;;;3.10;1.83;;;24.30;99.90;;;;;;5014909;28;20030;-76
2023/07/22 10:22:51;;;;;;;2.35;1.55;;;24.40;99.90;;;;;;5003703;28;20481;-77
2023/07/22 10:25:19;;;;;;;4.22;2.00;;;24.30;99.90;;;;;;5009216;28;20463;-77
2023/07/22 10:27:46;;;;;;;7.00;2.25;;;24.20;99.90;;;;;;5008925;28;20033;-76
2023/07/22 10:30:14;;;;;;;4.18;2.28;;;24.30;99.90;;;;;;5010361;28;20399;-77
2023/07/22 10:32:43;;;;;;;3.15;2.17;;;24.80;99.90;;;;;;5012207;28;20281;-77
2023/07/22 10:35:11;;;;;;;4.53;1.73;;;24.90;99.90;;;;;;5024494;28;20050;-76
2023/07/22 10:37:41;;;;;;;3.97;1.88;;;24.90;99.90;;;;;;5011892;28;20045;-75
2023/07/22 10:40:19;;;;;;;3.10;2.05;;;25.20;99.90;;;;;;5009339;28;20040;-77
2023/07/22 10:43:11;;;;;;;3.47;1.98;;;25.20;99.90;;;;;;5013063;28;20046;-77
2023/07/22 10:45:52;;;;;;;7.55;2.00;;;24.80;99.90;;;;;;5015309;28;20046;-76
2023/07/22 10:48:18;;;;;;;;;;;24.90;99.90;;;;;;5014630;28;20038;-77
2023/07/22 10:50:48;;;;;;;4.10;2.90;;;25.10;99.90;;;;;;5011062;28;19913;-75
2023/07/22 10:53:23;;;;;;;7.53;2.47;;;25.30;99.90;;;;;;5012119;28;20034;-75
2023/07/22 10:56:09;;;;;;;3.55;1.95;;;25.40;99.90;;;;;;5013758;28;20033;-76
2023/07/22 10:58:44;;;;;;;2.85;1.70;;;25.60;99.90;;;;;;5010578;28;20368;-76
2023/07/22 11:01:24;;;;;;;2.60;2.17;;;25.60;99.90;;;;;;5007962;28;20102;-78
2023/07/22 11:04:05;;;;;;;;;;;25.30;99.90;;;;;;5023410;28;20034;-77
2023/07/22 11:06:32;;;;;;;8.73;2.47;;;25.30;99.90;;;;;;5012669;28;20282;-75
2023/07/22 11:08:58;;;;;;;4.72;2.45;;;25.60;99.90;;;;;;5019099;28;20050;-76
2023/07/22 11:11:43;;;;;;;3.55;2.05;;;25.60;99.90;;;;;;5019405;28;20403;-76
2023/07/22 11:14:21;;;;;;;3.75;2.08;;;25.60;99.90;;;;;;5018649;28;20045;-81
2023/07/22 11:16:48;;;;;;;4.90;2.10;;;25.30;99.90;;;;;;5016361;28;20037;-75
2023/07/22 11:19:17;;;;;;;4.68;1.95;;;25.70;99.90;;;;;;5023810;28;20463;-75
2023/07/22 11:21:44;;;;;;;4.00;2.00;;;26.40;99.90;;;;;;5018951;28;20041;-75
2023/07/22 11:24:10;;;;;;;5.32;2.15;;;27.20;99.90;;;;;;5023595;28;20390;-81
2023/07/22 11:26:37;;;;;;;3.22;1.90;;;27.10;99.90;;;;;;5024550;28;20042;-77
2023/07/22 11:29:05;;;;;;;2.72;2.03;;;26.30;99.90;;;;;;5024841;28;20471;-77
2023/07/22 11:31:32;;;;;;;3.42;1.85;;;26.30;99.90;;;;;;5020052;28;20037;-76
2023/07/22 11:33:58;;;;;;;3.75;1.80;;;26.00;99.90;;;;;;5019539;28;20045;-76
2023/07/22 11:36:26;;;;;;;5.78;1.70;;;26.20;99.90;;;;;;5016934;28;20030;-75
2023/07/22 11:38:54;;;;;;;3.83;1.88;;;26.60;99.90;;;;;;5018869;28;20030;-76
2023/07/22 11:41:21;;;;;;;5.93;2.30;;;27.10;99.90;;;;;;5008304;28;20053;-77
2023/07/22 11:43:48;;;;;;;2.55;2.30;;;26.60;99.90;;;;;;5019823;28;20037;-77
2023/07/22 11:46:15;;;;;;;4.18;2.22;;;25.80;99.90;;;;;;5017490;28;20038;-76
2023/07/22 11:48:50;;;;;;;3.53;2.15;;;25.80;99.90;;;;;;5019830;28;20042;-76
2023/07/22 11:51:18;;;;;;;5.60;2.13;;;25.80;99.90;;;;;;5018725;28;20030;-77
2023/07/22 11:53:50;;;;;;;3.63;1.38;;;25.70;99.90;;;;;;5016712;28;20034;-76
2023/07/22 11:56:25;;;;;;;5.00;2.17;;;25.30;99.90;;;;;;5022084;28;20025;-77
2023/07/22 11:58:53;;;;;;;4.57;1.80;;;25.00;99.90;;;;;;5020920;28;20467;-77
2023/07/22 12:01:21;;;;;;;3.80;2.00;;;24.80;99.90;;;;;;5017972;28;20030;-75
2023/07/22 12:03:47;;;;;;;4.90;2.20;;;24.70;99.90;;;;;;5018382;28;20034;-76
2023/07/22 12:06:15;;;;;;;4.20;1.95;;;24.90;99.90;;;;;;5021031;28;20041;-76
2023/07/22 12:08:49;;;;;;;4.18;1.70;;;25.20;99.90;;;;;;5019822;28;20026;-77
2023/07/22 12:11:23;;;;;;;3.63;1.75;;;25.40;99.90;;;;;;5022380;28;20053;-76
2023/07/22 12:14:07;;;;;;;3.50;1.77;;;25.50;99.90;;;;;;5023063;28;20038;-76
2023/07/22 12:16:36;;;;;;;3.03;1.95;;;25.60;99.90;;;;;;5015879;28;20375;-74
2023/07/22 12:19:03;;;;;;;4.23;2.10;;;26.20;99.90;;;;;;5017626;28;20046;-76
2023/07/22 12:21:29;;;;;;;3.30;1.50;;;26.50;99.90;;;;;;5015758;28;20038;-77
2023/07/22 12:23:55;;;;;;;2.78;2.00;;;25.80;99.90;;;;;;5012694;28;20048;-76
2023/07/22 12:26:21;;;;;;;3.58;1.70;;;25.90;99.90;;;;;;5016110;28;20914;-75
2023/07/22 12:28:47;;;;;;;6.55;1.88;;;26.20;99.90;;;;;;5019228;28;20034;-76
2023/07/22 12:31:14;;;;;;;2.63;1.75;;;26.90;99.90;;;;;;5012749;28;20030;-77
2023/07/22 12:33:40;;;;;;;2.95;1.98;;;26.40;99.90;;;;;;5017731;28;20053;-75
2023/07/22 12:36:06;;;;;;;4.53;1.75;;;26.00;99.90;;;;;;5018187;28;20034;-77
2023/07/22 12:38:32;;;;;;;4.95;2.53;;;26.10;99.90;;;;;;5018149;28;20034;-77
2023/07/22 12:40:58;;;;;;;5.32;2.63;;;26.50;96.30;;;;;;5015541;28;20054;-76
2023/07/22 12:43:24;;;;;;;3.03;1.95;;;27.00;91.00;;;;;;5013559;28;20402;-76
2023/07/22 12:45:51;;;;;;;4.00;2.05;;;27.20;91.20;;;;;;5014510;28;20041;-75
2023/07/22 12:48:17;;;;;;;5.25;3.53;;;27.40;93.30;;;;;;5015917;28;20038;-76
2023/07/22 12:50:48;;;;;;;2.35;1.77;;;27.40;94.20;;;;;;5016330;28;20038;-76
2023/07/22 12:53:14;;;;;;;9.63;4.55;;;27.30;98.30;;;;;;5016943;28;20490;-78